Time;durP1;ratioP1;P1;durP2;ratioP2;P2;SDS_P1;SDS_P2;PMS_P1;PMS_P2;Temp;Humidity;BMP_temperature;BMP_pressure;BME280_temperature;BME280_humidity;BME280_pressure;Samples;Min_cycle;Max_cycle;Signal;HPM_P1;HPM_P2
2022/08/31 00:05:30;;;;;;;10.48;7.47;;;;;;;19.14;65.70;99697.20;1664326;84;21025;-91
2022/08/31 00:07:51;;;;;;;9.60;6.92;;;;;;;19.11;65.79;99697.14;1633173;86;21100;-89
2022/08/31 00:10:20;;;;;;;8.20;7.15;;;;;;;19.12;65.80;99696.08;1658159;85;21531;-89
2022/08/31 00:13:03;;;;;;;9.40;6.75;;;;;;;19.13;65.91;99692.89;1669411;85;21117;-88
2022/08/31 00:15:28;;;;;;;8.80;7.28;;;;;;;19.12;65.90;99700.66;1656425;84;21183;-87
2022/08/31 00:17:55;;;;;;;8.70;7.30;;;;;;;19.11;65.85;99701.72;1667807;85;21027;-87
2022/08/31 00:20:31;;;;;;;9.68;7.28;;;;;;;19.09;65.89;99700.59;1650794;85;20998;-87
2022/08/31 00:22:56;;;;;;;12.95;7.70;;;;;;;19.08;66.10;99704.84;1645739;85;21086;-86
2022/08/31 00:25:25;;;;;;;10.88;7.28;;;;;;;19.04;66.44;99701.28;1661019;86;21085;-85
2022/08/31 00:27:51;;;;;;;8.90;7.47;;;;;;;19.01;66.55;99700.90;1660524;85;21128;-86
2022/08/31 00:30:18;;;;;;;8.43;6.70;;;;;;;18.96;66.64;99698.86;1647055;85;20986;-86
2022/08/31 00:32:44;;;;;;;8.45;6.95;;;;;;;18.94;66.83;99695.57;1669165;85;21034;-83
2022/08/31 00:35:13;;;;;;;9.13;6.97;;;;;;;18.91;66.74;99696.03;1661180;85;21062;-85
2022/08/31 00:37:39;;;;;;;9.68;6.25;;;;;;;18.88;66.86;99697.81;1659137;85;21552;-84
2022/08/31 00:40:08;;;;;;;9.40;6.83;;;;;;;18.88;66.97;99695.13;1657439;85;21550;-84
2022/08/31 00:42:35;;;;;;;8.23;6.80;;;;;;;18.89;67.09;99698.63;1670740;85;21120;-85
2022/08/31 00:45:01;;;;;;;9.05;7.08;;;;;;;18.88;67.19;99700.51;1667667;85;21008;-87
2022/08/31 00:47:28;;;;;;;8.40;7.00;;;;;;;18.84;67.09;99698.78;1647593;85;21034;-87
2022/08/31 00:49:54;;;;;;;10.43;6.90;;;;;;;18.82;67.32;99697.38;1654476;84;21069;-78
2022/08/31 00:52:25;;;;;;;7.97;6.62;;;;;;;18.80;67.31;99696.24;1663376;85;21114;-84
2022/08/31 00:54:59;;;;;;;9.65;6.72;;;;;;;18.86;67.41;99699.91;1668699;85;21007;-82
2022/08/31 00:57:30;;;;;;;7.83;5.95;;;;;;;18.97;67.28;99701.05;1660110;85;21014;-80
2022/08/31 00:59:58;;;;;;;7.15;6.42;;;;;;;18.96;67.27;99705.59;1666112;85;21053;-80
2022/08/31 01:02:24;;;;;;;12.00;7.20;;;;;;;18.95;67.16;99699.08;1660644;85;21044;-79
2022/08/31 01:04:51;;;;;;;7.70;6.90;;;;;;;18.94;67.29;99700.95;1656516;85;21723;-79
2022/08/31 01:07:18;;;;;;;8.98;7.65;;;;;;;18.90;67.39;99693.03;1661260;85;21546;-79
2022/08/31 01:09:46;;;;;;;9.13;7.97;;;;;;;18.88;67.42;99700.51;1663758;85;21174;-80
2022/08/31 01:12:13;;;;;;;11.28;8.28;;;;;;;18.84;67.48;99695.28;1657544;85;21545;-80
2022/08/31 01:14:40;;;;;;;9.38;7.28;;;;;;;18.81;67.58;99700.59;1660854;85;21069;-83
2022/08/31 01:17:07;;;;;;;9.10;7.15;;;;;;;18.79;67.93;99698.59;1610756;87;21202;-81
2022/08/31 01:20:17;;;;;;;9.70;8.15;;;;;;;18.75;67.77;99697.92;1660945;85;21183;-83
2022/08/31 01:23:12;;;;;;;10.35;7.97;;;;;;;18.72;68.16;99705.11;1649873;85;21101;-84
2022/08/31 01:25:41;;;;;;;9.93;8.65;;;;;;;18.65;68.35;99711.89;1653695;85;21022;-85
2022/08/31 01:28:08;;;;;;;9.90;8.33;;;;;;;18.58;68.63;99702.55;1663927;85;21625;-83
2022/08/31 01:30:35;;;;;;;11.08;8.50;;;;;;;18.63;68.64;99701.88;1663660;85;21967;-80
2022/08/31 01:33:04;;;;;;;11.10;9.23;;;;;;;18.74;68.75;99703.02;1644656;86;21105;-81
2022/08/31 01:35:31;;;;;;;12.07;10.58;;;;;;;18.73;68.84;99704.05;1655170;85;21096;-82
2022/08/31 01:37:57;;;;;;;12.75;9.90;;;;;;;18.67;68.81;99693.12;1656315;85;21077;-82
2022/08/31 01:40:36;;;;;;;12.13;9.45;;;;;;;18.71;68.96;99707.48;1659697;85;21105;-83
2022/08/31 01:43:03;;;;;;;13.15;9.58;;;;;;;18.69;69.03;99706.36;1654762;85;21148;-81
2022/08/31 01:45:29;;;;;;;13.18;10.30;;;;;;;18.67;68.99;99699.84;1656624;85;21623;-81
2022/08/31 01:47:58;;;;;;;12.13;10.28;;;;;;;18.65;69.07;99695.74;1654037;85;21651;-84
2022/08/31 01:50:25;;;;;;;13.88;10.18;;;;;;;18.60;69.20;99701.80;1652597;85;21362;-82
2022/08/31 01:52:52;;;;;;;12.15;10.05;;;;;;;18.55;69.27;99695.44;1647421;85;21085;-80
2022/08/31 01:55:19;;;;;;;14.65;9.78;;;;;;;18.53;69.37;99696.18;1650044;85;21077;-81
2022/08/31 01:57:45;;;;;;;11.83;9.60;;;;;;;18.58;69.55;99694.98;1632413;86;21187;-79
2022/08/31 02:00:14;;;;;;;13.95;10.20;;;;;;;18.64;69.59;99690.89;1639146;86;21097;-80
2022/08/31 02:02:42;;;;;;;11.45;9.20;;;;;;;18.64;69.55;99704.34;1654437;85;21094;-81
2022/08/31 02:05:09;;;;;;;13.65;10.00;;;;;;;18.62;69.57;99694.33;1655638;85;21010;-80
2022/08/31 02:07:35;;;;;;;11.57;9.30;;;;;;;18.63;69.64;99696.48;1657544;85;21229;-78
2022/08/31 02:10:05;;;;;;;12.95;9.75;;;;;;;18.64;69.51;99699.50;1664348;85;21028;-78
2022/08/31 02:12:31;;;;;;;12.13;9.90;;;;;;;18.63;69.59;99697.83;1631422;86;20997;-80
2022/08/31 02:14:58;;;;;;;10.60;9.50;;;;;;;18.53;69.80;99694.30;1636148;86;21033;-78
2022/08/31 02:17:25;;;;;;;15.55;10.25;;;;;;;18.38;70.08;99692.48;1631578;86;21038;-83
2022/08/31 02:19:51;;;;;;;12.43;10.15;;;;;;;18.21;70.43;99691.67;1633812;86;21268;-81
2022/08/31 02:22:18;;;;;;;13.55;9.83;;;;;;;18.07;70.94;99688.80;1651051;85;21030;-82
2022/08/31 02:24:46;;;;;;;16.02;9.20;;;;;;;18.03;71.20;99690.28;1650105;85;22241;-81
2022/08/31 02:27:16;;;;;;;11.78;9.80;;;;;;;18.05;71.13;99684.16;1636782;86;21598;-83
2022/08/31 02:29:43;;;;;;;15.00;10.88;;;;;;;17.98;71.53;99685.57;1635367;86;21590;-83
2022/08/31 02:32:10;;;;;;;14.00;9.95;;;;;;;17.91;71.75;99686.13;1653714;85;22172;-82
2022/08/31 02:34:39;;;;;;;17.05;10.32;;;;;;;17.87;71.97;99690.30;1658213;85;21046;-82
2022/08/31 02:37:07;;;;;;;13.05;9.38;;;;;;;17.84;72.06;99690.19;1659124;85;21050;-82
2022/08/31 02:39:34;;;;;;;12.28;9.35;;;;;;;17.81;72.10;99687.08;1659258;85;21065;-83
2022/08/31 02:42:00;;;;;;;15.03;9.33;;;;;;;17.78;72.31;99684.31;1636381;86;21057;-84
2022/08/31 02:44:27;;;;;;;11.53;8.65;;;;;;;17.85;72.26;99689.16;1630872;86;22012;-83
2022/08/31 02:46:53;;;;;;;10.63;8.63;;;;;;;17.92;72.27;99681.56;1660441;85;21215;-83
2022/08/31 02:49:39;;;;;;;12.90;9.08;;;;;;;17.90;72.37;99684.99;1637540;85;21011;-89
2022/08/31 02:52:06;;;;;;;11.40;9.15;;;;;;;17.85;72.50;99689.16;1658013;84;21029;-87
2022/08/31 02:54:32;;;;;;;13.35;8.75;;;;;;;17.79;72.64;99683.28;1675658;84;21072;-85
2022/08/31 02:56:59;;;;;;;10.13;8.40;;;;;;;17.77;72.88;99685.37;1679284;84;21308;-85
2022/08/31 02:59:26;;;;;;;11.85;7.72;;;;;;;17.73;73.02;99686.84;1675565;84;21030;-83
2022/08/31 03:01:54;;;;;;;11.12;7.47;;;;;;;17.71;73.00;99686.20;1668449;84;21068;-85
2022/08/31 03:04:21;;;;;;;14.50;7.85;;;;;;;17.77;72.96;99684.02;1684437;84;21128;-84
2022/08/31 03:06:48;;;;;;;11.25;7.90;;;;;;;17.74;73.00;99685.79;1671546;84;21524;-82
2022/08/31 03:09:15;;;;;;;8.53;7.62;;;;;;;17.69;73.16;99684.25;1686814;84;21160;-87
2022/08/31 03:11:42;;;;;;;8.15;7.28;;;;;;;17.62;73.37;99686.19;1673912;84;21080;-87
2022/08/31 03:14:09;;;;;;;13.88;7.62;;;;;;;17.55;73.69;99682.17;1676825;84;21060;-85
2022/08/31 03:16:38;;;;;;;10.25;7.53;;;;;;;17.46;73.82;99676.25;1649635;84;21017;-84
2022/08/31 03:19:06;;;;;;;9.43;6.58;;;;;;;17.41;74.11;99678.74;1658610;84;21124;-87
2022/08/31 03:21:33;;;;;;;11.65;6.58;;;;;;;17.44;74.41;99682.35;1677981;84;21885;-82
2022/08/31 03:23:59;;;;;;;6.97;5.67;;;;;;;17.53;74.10;99684.78;1675523;84;21021;-82
2022/08/31 03:26:26;;;;;;;8.53;6.72;;;;;;;17.53;74.21;99683.44;1616072;85;21106;-81
2022/08/31 03:28:54;;;;;;;9.20;6.83;;;;;;;17.52;74.11;99685.80;1640290;85;21065;-82
2022/08/31 03:31:36;;;;;;;8.65;6.80;;;;;;;17.48;74.50;99695.65;1649301;85;21080;-82
2022/08/31 03:34:03;;;;;;;10.45;6.20;;;;;;;17.43;74.54;99694.12;1652261;85;21073;-84
2022/08/31 03:36:29;;;;;;;8.13;5.17;;;;;;;17.46;74.56;99688.33;1634206;85;21060;-85
2022/08/31 03:38:56;;;;;;;9.45;5.87;;;;;;;17.60;74.41;99688.27;1648371;85;21111;-85
2022/08/31 03:41:24;;;;;;;6.92;5.25;;;;;;;17.62;74.45;99692.89;1663841;85;20993;-84
2022/08/31 03:43:51;;;;;;;7.17;5.35;;;;;;;17.59;74.45;99686.59;1668146;85;21002;-85
2022/08/31 03:46:20;;;;;;;6.72;5.12;;;;;;;17.58;74.47;99690.34;1644916;85;21564;-84
2022/08/31 03:48:46;;;;;;;7.10;5.40;;;;;;;17.53;74.42;99690.97;1656469;84;21108;-85
2022/08/31 03:51:15;;;;;;;6.25;5.22;;;;;;;17.50;74.65;99692.76;1669948;83;21058;-87
2022/08/31 03:53:42;;;;;;;7.78;5.25;;;;;;;17.51;74.68;99691.70;1670146;85;21063;-88
2022/08/31 03:56:09;;;;;;;10.05;5.80;;;;;;;17.56;74.72;99692.39;1642821;86;21055;-87
2022/08/31 03:58:39;;;;;;;7.75;5.80;;;;;;;17.52;74.71;99689.34;1661761;85;21307;-88
2022/08/31 04:01:06;;;;;;;6.47;5.80;;;;;;;17.48;75.15;99700.17;1655427;85;21038;-83
2022/08/31 04:03:38;;;;;;;8.65;6.03;;;;;;;17.42;75.18;99692.98;1649069;84;21140;-85
2022/08/31 04:06:18;;;;;;;6.70;5.50;;;;;;;17.35;75.34;99698.39;1631829;84;21038;-81
2022/08/31 04:09:05;;;;;;;7.30;4.83;;;;;;;17.32;75.66;99692.09;1676066;84;21510;-81
2022/08/31 04:11:41;;;;;;;7.35;5.45;;;;;;;17.44;75.45;99687.72;1630458;86;21242;-81
2022/08/31 04:14:25;;;;;;;8.13;5.40;;;;;;;17.49;75.48;99699.97;1641128;86;21053;-83
2022/08/31 04:17:10;;;;;;;9.05;5.87;;;;;;;17.52;75.32;99695.20;1656756;85;21526;-82
2022/08/31 04:19:40;;;;;;;8.68;5.80;;;;;;;17.56;75.32;99695.92;1654515;85;21085;-85
2022/08/31 04:22:14;;;;;;;6.85;5.47;;;;;;;17.57;75.25;99695.39;1660318;85;21137;-83
2022/08/31 04:24:42;;;;;;;8.05;5.97;;;;;;;17.56;75.20;99695.92;1658544;84;21298;-84
2022/08/31 04:27:09;;;;;;;6.50;5.45;;;;;;;17.70;75.15;99696.66;1659731;85;21038;-81
2022/08/31 04:29:39;;;;;;;9.58;5.67;;;;;;;17.76;75.02;99697.67;1663920;85;21051;-86
2022/08/31 04:32:08;;;;;;;6.60;5.83;;;;;;;17.79;74.97;99694.53;1643157;85;21363;-88
2022/08/31 04:34:36;;;;;;;7.05;5.45;;;;;;;17.84;74.91;99698.78;1659289;85;21067;-83
2022/08/31 04:37:03;;;;;;;8.25;5.58;;;;;;;17.87;74.79;99699.70;1657973;85;21077;-77
2022/08/31 04:39:32;;;;;;;6.42;5.22;;;;;;;17.86;74.74;99696.16;1657828;85;20986;-78
2022/08/31 04:41:58;;;;;;;5.65;5.08;;;;;;;17.96;74.61;99702.94;1662801;85;21133;-76
2022/08/31 04:44:26;;;;;;;6.87;5.35;;;;;;;18.09;74.53;99712.25;1645316;85;21069;-76
2022/08/31 04:46:55;;;;;;;7.62;5.70;;;;;;;18.08;74.40;99710.62;1663294;85;21119;-78
2022/08/31 04:49:21;;;;;;;6.58;5.70;;;;;;;18.03;74.52;99707.75;1639832;86;21236;-78
2022/08/31 04:51:48;;;;;;;8.20;6.40;;;;;;;17.99;74.61;99716.77;1661111;85;21050;-75
2022/08/31 04:54:15;;;;;;;8.50;5.08;;;;;;;17.93;74.76;99704.73;1655032;85;21084;-78
2022/08/31 04:56:44;;;;;;;7.55;5.87;;;;;;;18.01;74.80;99714.69;1649643;85;21070;-76
2022/08/31 04:59:13;;;;;;;7.20;5.83;;;;;;;18.10;74.65;99713.06;1663290;85;21061;-76
2022/08/31 05:01:44;;;;;;;6.45;5.72;;;;;;;18.07;74.56;99709.77;1661834;85;21276;-79
2022/08/31 05:04:12;;;;;;;7.62;5.87;;;;;;;18.07;74.61;99709.77;1670987;84;21037;-78
2022/08/31 05:06:41;;;;;;;6.12;5.37;;;;;;;18.04;74.57;99704.00;1640970;86;21487;-77
2022/08/31 05:09:12;;;;;;;6.10;5.17;;;;;;;18.08;74.69;99713.31;1642227;86;21039;-79
2022/08/31 05:11:41;;;;;;;7.15;5.65;;;;;;;18.16;74.72;99717.59;1644135;86;21064;-79
2022/08/31 05:14:08;;;;;;;6.00;5.40;;;;;;;18.24;74.41;99720.01;1643041;86;21525;-78
2022/08/31 05:16:39;;;;;;;8.75;5.42;;;;;;;18.23;74.45;99717.84;1649658;86;21022;-79
2022/08/31 05:19:06;;;;;;;6.08;4.97;;;;;;;18.22;74.74;99714.84;1639380;86;21046;-76
2022/08/31 05:21:36;;;;;;;8.85;5.47;;;;;;;18.24;74.60;99718.13;1633357;86;21097;-77
2022/08/31 05:24:10;;;;;;;6.92;5.00;;;;;;;18.24;74.72;99711.41;1644092;86;21112;-78
2022/08/31 05:26:44;;;;;;;5.85;5.15;;;;;;;18.38;74.61;99718.03;1638738;86;21239;-79
2022/08/31 05:29:13;;;;;;;6.17;4.87;;;;;;;18.50;74.24;99709.53;1643316;86;21042;-77
2022/08/31 05:31:41;;;;;;;5.60;4.87;;;;;;;18.54;74.02;99712.61;1636505;86;21044;-80
2022/08/31 05:34:11;;;;;;;6.17;5.22;;;;;;;18.58;73.91;99709.77;1621322;86;21087;-76
2022/08/31 05:36:38;;;;;;;5.92;5.33;;;;;;;18.65;73.75;99714.58;1637635;86;21063;-76
2022/08/31 05:39:10;;;;;;;5.83;5.05;;;;;;;18.68;73.76;99708.77;1636013;86;22208;-76
2022/08/31 05:41:34;;;;;;;7.22;5.37;;;;;;;18.71;73.72;99704.27;1660625;85;21118;-75
2022/08/31 05:44:04;;;;;;;5.95;4.72;;;;;;;18.88;73.48;99708.58;1655447;85;21129;-77
2022/08/31 05:46:32;;;;;;;8.70;5.30;;;;;;;19.01;72.95;99711.13;1652931;85;21038;-76
2022/08/31 05:48:59;;;;;;;6.28;5.67;;;;;;;19.04;72.96;99712.05;1656659;85;21105;-76
2022/08/31 05:51:25;;;;;;;7.33;5.92;;;;;;;19.12;72.64;99716.27;1657714;85;22418;-76
2022/08/31 05:53:52;;;;;;;5.37;4.87;;;;;;;19.15;72.48;99713.14;1657415;85;21080;-76
2022/08/31 05:56:23;;;;;;;9.53;5.95;;;;;;;19.20;72.30;99717.84;1642300;85;21084;-76
2022/08/31 06:01:35;;;;;;;8.18;5.80;;;;;;;19.29;72.20;99712.99;1869308;76;22087;-81
2022/08/31 06:04:16;;;;;;;5.78;5.17;;;;;;;19.29;72.30;99716.50;1834009;76;21626;-79
2022/08/31 06:06:43;;;;;;;6.60;5.80;;;;;;;19.34;72.15;99708.58;1784202;79;21869;-81
2022/08/31 06:09:12;;;;;;;6.92;5.05;;;;;;;19.36;71.86;99710.52;1765888;80;20957;-80
2022/08/31 06:11:40;;;;;;;6.00;5.25;;;;;;;19.38;71.75;99711.11;1768618;79;21046;-80
2022/08/31 06:14:09;;;;;;;7.20;5.05;;;;;;;19.44;71.79;99711.55;1793204;79;21167;-80
2022/08/31 06:16:36;;;;;;;5.92;4.90;;;;;;;19.62;71.39;99709.86;1761136;79;21481;-81
2022/08/31 06:19:06;;;;;;;6.67;5.40;;;;;;;19.71;70.98;99709.03;1786193;79;21632;-78
2022/08/31 06:21:38;;;;;;;7.62;5.40;;;;;;;19.74;70.92;99708.09;1799131;78;20926;-80
2022/08/31 06:24:06;;;;;;;6.30;5.28;;;;;;;19.80;71.02;99711.20;1733485;80;20922;-80
2022/08/31 06:26:35;;;;;;;7.28;4.95;;;;;;;19.88;70.47;99711.94;1792129;80;21025;-82
2022/08/31 06:29:05;;;;;;;6.10;4.80;;;;;;;19.89;70.64;99711.69;1762701;79;21077;-79
2022/08/31 06:31:37;;;;;;;6.60;5.60;;;;;;;19.95;70.29;99713.98;1756876;80;21409;-78
2022/08/31 06:34:06;;;;;;;6.25;4.85;;;;;;;20.01;69.93;99718.45;1798986;78;20987;-76
2022/08/31 06:36:51;;;;;;;7.08;5.25;;;;;;;20.05;69.77;99714.27;1797961;78;21037;-74
2022/08/31 06:39:22;;;;;;;5.15;4.60;;;;;;;20.10;69.77;99716.27;1778772;78;21092;-76
2022/08/31 06:41:57;;;;;;;6.42;5.00;;;;;;;20.14;69.89;99715.55;1802989;78;21103;-79
2022/08/31 06:44:42;;;;;;;15.13;4.55;;;;;;;20.25;69.68;99715.30;1795391;78;21125;-78
2022/08/31 06:47:10;;;;;;;6.28;4.58;;;;;;;20.37;69.32;99713.42;1774312;79;21120;-78
2022/08/31 06:49:39;;;;;;;6.12;5.20;;;;;;;20.51;68.99;99717.25;1795000;78;20945;-77
2022/08/31 06:52:06;;;;;;;5.00;4.50;;;;;;;20.62;68.81;99714.58;1760391;79;21116;-79
2022/08/31 06:54:35;;;;;;;5.45;4.60;;;;;;;20.76;68.25;99717.05;1736027;81;21116;-79
2022/08/31 06:57:21;;;;;;;8.93;5.03;;;;;;;20.84;67.89;99721.27;1787938;79;21780;-78
2022/08/31 07:00:07;;;;;;;6.65;4.58;;;;;;;20.90;67.30;99723.02;1785576;79;21568;-79
2022/08/31 07:02:37;;;;;;;7.10;4.55;;;;;;;20.89;67.42;99728.14;1758650;79;21022;-77
2022/08/31 07:05:05;;;;;;;5.78;4.60;;;;;;;20.90;67.47;99723.86;1771600;78;21136;-79
2022/08/31 07:07:32;;;;;;;6.17;4.10;;;;;;;20.93;67.49;99718.50;1778036;79;21091;-80
2022/08/31 07:09:59;;;;;;;4.30;3.90;;;;;;;20.96;67.15;99719.39;1771068;80;21088;-78
2022/08/31 07:12:27;;;;;;;5.80;3.87;;;;;;;20.95;67.24;99715.85;1778453;79;21354;-74
2022/08/31 07:14:53;;;;;;;5.83;3.87;;;;;;;20.96;67.17;99718.05;1770243;79;21033;-74
2022/08/31 07:17:20;;;;;;;6.00;3.95;;;;;;;21.00;67.29;99710.57;1732294;80;21511;-74
2022/08/31 07:19:47;;;;;;;7.28;4.25;;;;;;;21.11;67.15;99715.67;1779893;79;21052;-74
2022/08/31 07:22:15;;;;;;;4.90;4.08;;;;;;;21.21;67.03;99711.83;1771059;79;21190;-74
2022/08/31 07:24:44;;;;;;;6.47;4.42;;;;;;;21.31;66.68;99716.61;1763492;79;21526;-73
2022/08/31 07:27:17;;;;;;;5.42;4.03;;;;;;;21.37;66.46;99717.53;1766368;79;21048;-72
2022/08/31 07:29:47;;;;;;;6.85;4.37;;;;;;;21.44;66.39;99718.77;1758127;79;21049;-72
2022/08/31 07:32:16;;;;;;;3.22;2.70;;;;;;;21.53;66.64;99717.33;1766656;80;21037;-72
2022/08/31 07:34:43;;;;;;;5.37;3.08;;;;;;;21.67;65.46;99721.41;1759266;80;21080;-72
2022/08/31 07:43:03;;;;;;;5.37;3.00;;;;;;;21.94;64.46;99714.87;1754792;79;21064;-72
2022/08/31 07:45:31;;;;;;;4.70;3.40;;;;;;;22.05;64.23;99720.44;1768321;80;21045;-72
2022/08/31 07:47:59;;;;;;;5.05;3.20;;;;;;;22.12;64.08;99720.58;1774330;79;21233;-73
2022/08/31 07:50:30;;;;;;;3.45;3.10;;;;;;;22.20;64.03;99719.35;1770850;79;21056;-73
2022/08/31 07:53:01;;;;;;;3.70;3.33;;;;;;;22.35;64.26;99711.52;1705515;79;21347;-73
2022/08/31 07:55:46;;;;;;;3.35;3.00;;;;;;;22.56;63.35;99711.30;1771645;79;21085;-73
2022/08/31 07:58:33;;;;;;;3.27;2.60;;;;;;;22.66;62.82;99714.69;1763185;79;21215;-73
2022/08/31 08:01:02;;;;;;;4.17;3.42;;;;;;;22.73;62.51;99713.96;1766495;79;21237;-73
2022/08/31 08:03:29;;;;;;;4.37;2.80;;;;;;;22.78;62.31;99709.17;1765840;80;21077;-73
2022/08/31 08:06:11;;;;;;;3.15;2.85;;;;;;;22.87;62.23;99715.80;1762367;80;21061;-74
2022/08/31 08:08:43;;;;;;;3.25;2.33;;;;;;;23.01;62.44;99708.67;1782744;80;21092;-73
2022/08/31 08:11:17;;;;;;;3.42;2.70;;;;;;;23.16;61.61;99704.30;1768842;79;20987;-74
2022/08/31 08:13:45;;;;;;;5.22;3.20;;;;;;;23.26;61.29;99699.53;1736750;79;21274;-71
2022/08/31 08:16:20;;;;;;;5.15;3.05;;;;;;;23.30;61.15;99697.95;1759320;79;21018;-72
2022/08/31 08:18:47;;;;;;;4.50;2.92;;;;;;;23.31;61.25;99696.89;1778681;79;21810;-73
2022/08/31 08:21:15;;;;;;;4.53;3.00;;;;;;;23.40;61.04;99693.73;1765017;79;21093;-72
2022/08/31 08:23:41;;;;;;;3.87;2.77;;;;;;;23.52;60.38;99692.48;1808480;78;21029;-72
2022/08/31 08:26:22;;;;;;;4.22;2.80;;;;;;;23.64;59.40;99692.88;1781842;78;21219;-73
2022/08/31 08:28:59;;;;;;;3.83;2.58;;;;;;;23.68;59.42;99684.00;1735956;79;21064;-73
2022/08/31 08:31:27;;;;;;;6.33;2.75;;;;;;;23.79;59.25;99688.19;1757931;80;21523;-75
2022/08/31 08:33:55;;;;;;;4.95;3.00;;;;;;;23.87;58.98;99686.36;1766881;80;21049;-72
2022/08/31 08:36:23;;;;;;;2.75;2.47;;;;;;;23.86;59.07;99683.38;1751703;80;21096;-71
2022/08/31 08:38:52;;;;;;;3.35;2.92;;;;;;;23.84;59.33;99682.28;1765773;79;21094;-70
2022/08/31 08:41:25;;;;;;;5.67;3.17;;;;;;;23.92;59.19;99686.42;1799057;78;21068;-71
2022/08/31 08:43:57;;;;;;;6.40;3.08;;;;;;;23.95;59.11;99684.53;1804468;78;21081;-74
2022/08/31 08:46:51;;;;;;;3.58;2.70;;;;;;;24.06;59.10;99685.45;1794609;78;21427;-72
2022/08/31 08:49:42;;;;;;;5.15;3.20;;;;;;;24.31;58.80;99678.05;1787447;78;21719;-80
2022/08/31 08:52:30;;;;;;;4.85;2.98;;;;;;;24.66;58.05;99666.62;1797390;78;21105;-76
2022/08/31 08:55:04;;;;;;;3.92;2.60;;;;;;;24.97;57.29;99674.92;1766141;79;21058;-78
2022/08/31 08:57:38;;;;;;;3.00;2.80;;;;;;;25.15;56.60;99666.02;1737368;79;21105;-75
2022/08/31 09:00:13;;;;;;;4.97;3.12;;;;;;;25.30;56.02;99666.11;1801901;78;21014;-78
2022/08/31 09:03:00;;;;;;;2.98;2.67;;;;;;;25.53;55.61;99664.00;1814721;78;21045;-78
2022/08/31 09:06:00;;;;;;;3.90;2.60;;;;;;;25.74;55.02;99664.85;1731606;78;21138;-75
2022/08/31 09:09:07;;;;;;;5.97;2.83;;;;;;;25.84;54.58;99664.85;1736906;81;21093;-75
2022/08/31 09:12:03;;;;;;;2.70;2.50;;;;;;;25.78;54.31;99668.66;1795159;77;21082;-78
2022/08/31 09:14:47;;;;;;;5.15;2.80;;;;;;;25.76;54.16;99676.28;1829250;76;21075;-77
2022/08/31 09:17:23;;;;;;;4.42;2.42;;;;;;;26.03;53.97;99674.14;1848413;77;21072;-76
2022/08/31 09:20:04;;;;;;;4.20;3.00;;;;;;;26.60;53.23;99664.05;1837067;77;22012;-79
2022/08/31 09:22:45;;;;;;;2.90;2.70;;;;;;;27.12;51.98;99667.94;1841617;76;21025;-79
2022/08/31 09:25:18;;;;;;;3.42;3.00;;;;;;;27.46;51.19;99661.25;1780698;79;21122;-78
2022/08/31 09:27:58;;;;;;;2.90;2.62;;;;;;;27.62;50.86;99660.08;1758025;79;21091;-79
2022/08/31 09:30:50;;;;;;;3.90;2.70;;;;;;;27.63;50.52;99664.42;1751983;80;21060;-73
2022/08/31 09:33:32;;;;;;;3.22;2.62;;;;;;;27.72;50.09;99668.73;1768633;78;21132;-73
2022/08/31 09:36:23;;;;;;;2.60;2.40;;;;;;;28.06;49.78;99667.95;1778197;79;21078;-73
2022/08/31 09:38:50;;;;;;;5.33;3.00;;;;;;;28.71;48.23;99659.42;1776039;79;21059;-75
2022/08/31 09:41:31;;;;;;;3.10;2.70;;;;;;;29.15;47.02;99654.27;1770455;79;21081;-74
2022/08/31 09:44:20;;;;;;;3.37;2.90;;;;;;;29.40;46.76;99659.14;1732158;81;21080;-73
2022/08/31 09:46:52;;;;;;;3.22;2.62;;;;;;;29.83;45.85;99663.17;1771146;79;21100;-74
2022/08/31 09:49:27;;;;;;;3.15;2.85;;;;;;;30.21;45.01;99657.61;1774184;79;21031;-75
2022/08/31 09:52:15;;;;;;;2.70;2.50;;;;;;;30.46;44.34;99651.42;1730977;80;21116;-71
2022/08/31 09:57:43;;;;;;;3.40;3.12;;;;;;;30.57;44.06;99654.23;1733516;80;21061;-71
2022/08/31 10:00:14;;;;;;;4.65;2.90;;;;;;;30.96;43.59;99649.66;1779647;79;21175;-73
2022/08/31 10:02:40;;;;;;;3.08;2.75;;;;;;;31.51;42.07;99653.42;1760778;79;20987;-73
2022/08/31 10:05:39;;;;;;;3.62;2.92;;;;;;;31.81;41.92;99641.45;1706865;80;21138;-72
2022/08/31 10:08:13;;;;;;;3.90;3.30;;;;;;;31.92;41.72;99642.82;1765775;80;21476;-73
2022/08/31 10:10:39;;;;;;;4.80;3.25;;;;;;;31.74;41.90;99644.64;1776835;79;21020;-72
2022/08/31 10:13:22;;;;;;;4.87;3.65;;;;;;;31.20;42.21;99646.41;1770100;79;21177;-72
2022/08/31 10:15:56;;;;;;;3.65;3.35;;;;;;;30.43;43.47;99655.59;1766571;79;21050;-75
2022/08/31 10:18:26;;;;;;;;;;;;;;;29.78;44.27;99655.83;1775568;79;21088;-76
2022/08/31 10:20:58;;;;;;;4.12;2.87;;;;;;;29.32;44.69;99658.41;1762496;79;20506;-72
2022/08/31 10:23:34;;;;;;;3.52;3.17;;;;;;;28.80;45.30;99654.95;1767163;79;21040;-73
2022/08/31 10:26:12;;;;;;;3.47;3.17;;;;;;;28.49;46.27;99654.98;1759252;80;21109;-71
2022/08/31 10:28:54;;;;;;;3.77;3.47;;;;;;;28.35;46.87;99647.47;1770736;79;21658;-75
2022/08/31 10:31:31;;;;;;;4.45;3.12;;;;;;;28.57;47.49;99653.03;1757959;80;21057;-74
2022/08/31 10:36:53;;;;;;;;;;;;;;;29.85;45.57;99647.25;1773666;79;21080;-75
2022/08/31 10:39:57;;;;;;;4.37;2.50;;;;;;;30.78;44.89;99647.22;1772585;79;21099;-76
2022/08/31 10:42:28;;;;;;;3.37;2.75;;;;;;;31.80;42.76;99635.16;1768182;80;21122;-72
2022/08/31 10:45:09;;;;;;;3.25;2.92;;;;;;;32.73;40.71;99633.57;1767627;79;21037;-72
2022/08/31 10:47:40;;;;;;;3.17;2.60;;;;;;;33.07;39.42;99635.60;1772187;79;21005;-71
2022/08/31 10:50:05;;;;;;;3.20;2.35;;;;;;;32.87;39.04;99628.75;1768966;79;21047;-71
2022/08/31 10:52:54;;;;;;;4.35;2.50;;;;;;;32.51;39.64;99623.45;1773437;80;21965;-75
2022/08/31 10:55:36;;;;;;;3.10;2.90;;;;;;;32.06;39.91;99629.03;1771326;80;20993;-75
2022/08/31 10:58:26;;;;;;;8.63;3.00;;;;;;;31.40;41.18;99640.45;1780232;79;21096;-72
2022/08/31 11:01:06;;;;;;;4.85;3.25;;;;;;;30.72;42.45;99644.34;1772538;79;21096;-79
2022/08/31 11:03:56;;;;;;;4.12;2.67;;;;;;;30.03;43.51;99644.20;1775190;79;21080;-78
2022/08/31 11:06:34;;;;;;;5.08;2.70;;;;;;;29.48;44.39;99642.05;1777775;79;21605;-77
2022/08/31 11:09:14;;;;;;;2.70;2.50;;;;;;;29.20;45.09;99640.50;1764069;80;21500;-74
2022/08/31 11:11:46;;;;;;;2.98;2.65;;;;;;;29.38;45.01;99632.59;1772174;79;21005;-78
2022/08/31 11:14:32;;;;;;;2.30;2.10;;;;;;;29.73;44.71;99638.14;1767790;79;21056;-75
2022/08/31 11:17:27;;;;;;;2.40;2.20;;;;;;;30.14;44.08;99636.08;1769308;79;21091;-75
2022/08/31 11:20:22;;;;;;;3.02;2.47;;;;;;;30.86;43.70;99633.92;1780037;79;21088;-74
2022/08/31 11:23:15;;;;;;;3.58;2.42;;;;;;;31.75;42.11;99631.95;1780658;79;21068;-75
2022/08/31 11:26:09;;;;;;;4.03;2.33;;;;;;;32.33;40.63;99634.34;1767539;79;21013;-75
2022/08/31 11:29:08;;;;;;;2.57;2.20;;;;;;;32.33;40.43;99634.34;1754235;79;21509;-76
2022/08/31 11:31:39;;;;;;;2.98;2.67;;;;;;;31.86;40.51;99630.34;1766858;79;21463;-76
2022/08/31 11:34:15;;;;;;;3.85;2.45;;;;;;;31.64;40.67;99631.14;1787956;79;21840;-76
2022/08/31 11:36:51;;;;;;;2.42;2.22;;;;;;;31.42;40.59;99627.23;1768162;80;21017;-74
2022/08/31 11:39:43;;;;;;;2.10;1.90;;;;;;;31.05;41.08;99630.52;1771875;79;21096;-77
2022/08/31 11:42:32;;;;;;;3.30;2.45;;;;;;;30.72;41.21;99636.68;1770932;79;21055;-80
2022/08/31 11:45:08;;;;;;;2.62;2.42;;;;;;;30.39;41.81;99621.69;1772245;79;21042;-79
2022/08/31 11:47:41;;;;;;;2.83;2.55;;;;;;;30.40;42.23;99623.87;1769376;79;21159;-79
2022/08/31 11:50:30;;;;;;;3.98;2.40;;;;;;;30.44;42.45;99627.05;1776567;79;21026;-79
2022/08/31 11:52:59;;;;;;;3.00;2.77;;;;;;;30.63;41.98;99620.11;1767869;79;21052;-78
2022/08/31 11:55:29;;;;;;;4.60;2.70;;;;;;;31.05;41.78;99619.55;1732399;80;21129;-78
2022/08/31 11:58:10;;;;;;;2.83;2.60;;;;;;;31.55;40.75;99615.98;1772662;79;21052;-74
2022/08/31 12:01:13;;;;;;;3.30;2.70;;;;;;;31.63;39.98;99613.06;1767675;79;21268;-77
2022/08/31 12:03:54;;;;;;;2.75;2.20;;;;;;;31.40;40.70;99610.27;1764185;79;22057;-75
2022/08/31 12:06:34;;;;;;;2.40;2.20;;;;;;;31.17;40.44;99613.53;1766355;79;21036;-76
2022/08/31 12:09:21;;;;;;;3.37;2.50;;;;;;;31.00;40.57;99601.82;1770035;79;21545;-80
2022/08/31 12:12:05;;;;;;;3.12;2.80;;;;;;;30.63;40.75;99605.03;1769936;79;21029;-74
2022/08/31 12:14:50;;;;;;;2.67;2.05;;;;;;;30.21;41.29;99604.19;1767177;79;22639;-77
2022/08/31 12:17:50;;;;;;;2.60;2.35;;;;;;;29.88;41.90;99605.59;1762710;79;21552;-77